METAR Data
IDs: Format: Raw Decoded Include TAF

Data at: 1816 UTC 21 Sep 2018

KMDD 211750Z AUTO 34009KT 10SM 27/20 A3003 RMK AO2 T02710203 10273 20222
KMDD 211730Z AUTO 35009KT 10SM 27/20 A3003 RMK AO2 T02730203
KMDD 211710Z AUTO 36010KT 10SM 26/20 A3003 RMK AO2 T02630201
KMDD 211650Z AUTO 35012KT 10SM 26/20 A3003 RMK AO2 T02600203
KMDD 211630Z AUTO 36006KT 10SM 25/20 A3003 RMK AO2 LTG DSNT SE T02530204
KMDD 211610Z AUTO 36009KT 10SM 25/21 A3003 RMK AO2 T02470208
KMDD 211550Z AUTO 34011G20KT 10SM 24/21 A3002 RMK AO2 T02420212
KMDD 211530Z AUTO 34007KT 10SM 24/21 A3001 RMK AO2 LTG DSNT SE T02350214
KMDD 211510Z AUTO 34008KT 10SM 23/22 A3000 RMK AO2 T02330216
KMDD 211450Z AUTO 36004KT 10SM 24/22 A2999 RMK AO2 LTG DSNT SE T02350222
KMDD 211430Z AUTO 00000KT 10SM 23/23 A2999 RMK AO2 T02280226
KMDD 211410Z AUTO 00000KT 7SM 22/22 A2998 RMK AO2 LTG DSNT SE T02240221
KMDD 211350Z AUTO 02004KT 4SM DZ 22/22 A2998 RMK AO2 P0001 T02220215
KMDD 211330Z AUTO 36004KT 4SM +RA 22/22 A2997 RMK AO2 T02230215
KMDD 211315Z AUTO 00000KT 5SM DZ 22/22 A2996 RMK AO2 T02230215
KMDD 211250Z AUTO 05003KT 5SM RA 23/22 A2996 RMK AO2 LTG DSNT SE P0003 T02250215
KMDD 211230Z AUTO 00000KT 5SM +RA 23/22 A2995 RMK AO2 LTG DSNT SE P0002 T02250215
KMDD 211210Z AUTO 32004KT 7SM 23/22 A2995 RMK AO2 LTG DSNT SE T02250215
KMDD 211150Z AUTO 32003KT 7SM 23/22 A2994 RMK AO2 T02250215 10230 20220
KMDD 211135Z AUTO 00000KT 10SM 22/21 A2993 RMK AO2 T02230212
KMDD 211110Z AUTO 00000KT 10SM 23/21 A2993 RMK AO2 T02250214
KMDD 211050Z AUTO 00000KT 10SM 22/21 A2993 RMK AO2 LTG DSNT SE AND S T02230212
KMDD 211030Z AUTO 34003KT 10SM 22/21 A2992 RMK AO2 LTG DSNT SE T02230213
KMDD 211010Z AUTO 00000KT 10SM VCTS 22/21 A2991 RMK AO2 LTG DSNT E T02200210
KMDD 210950Z AUTO 19005KT 10SM 22/21 A2991 RMK AO2 T02210210
KMDD 210930Z AUTO 00000KT 10SM 22/21 A2991 RMK AO2 LTG DSNT E T02200210
KMDD 210910Z AUTO 21003KT 10SM 22/21 A2992 RMK AO2 LTG DSNT E AND SE T02220211
KMDD 210850Z AUTO 00000KT 10SM 22/21 A2992 RMK AO2 LTG DSNT S T02200210
KMDD 210830Z AUTO 00000KT 10SM 22/21 A2992 RMK AO2 LTG DSNT S T02200210
KMDD 210810Z AUTO 20005KT 10SM 22/21 A2993 RMK AO2 LTG DSNT SE AND S T02210209
KMDD 210750Z AUTO 18008KT 7SM 23/22 A2993 RMK AO2 LTG DSNT SE AND S T02290217
KMDD 210730Z AUTO 15003KT 7SM 23/22 A2992 RMK AO2 LTG DSNT SE AND S T02300218
KMDD 210710Z AUTO 16006KT 7SM 23/22 A2992 RMK AO2 LTG DSNT SE AND S T02280217
KMDD 210650Z AUTO 16007KT 5SM BR 23/22 A2993 RMK AO2 LTG DSNT SE AND S T02270217
KMDD 210635Z AUTO 16006KT 5SM BR 23/22 A2993 RMK AO2 LTG DSNT S T02270217
KMDD 210610Z AUTO 17006KT 5SM BR 23/22 A2993 RMK AO2 LTG DSNT SE T02260215
KMDD 210550Z AUTO 16008KT 5SM BR 23/22 A2994 RMK AO2 LTG DSNT SE AND S T02260215 10275 20226 402970218
KMDD 210530Z AUTO 16009KT 5SM -VCTSDZ 23/22 A2994 RMK AO2 LTG DSNT N AND S T02270215
KMDD 210510Z AUTO 16007KT 5SM -DZ 23/21 A2994 RMK AO2 LTG DSNT S T02270213
KMDD 210450Z AUTO 16007KT 5SM DZ 23/21 A2995 RMK AO2 P0003 T02300212
KMDD 210430Z AUTO 19007KT 5SM -RA 23/21 A2996 RMK AO2 LTG DSNT S P0003 T02310210
KMDD 210415Z AUTO 18012G15KT 10SM -RA 24/21 A2996 RMK AO2 LTG DSNT S T02360206
KMDD 210350Z AUTO 17013G16KT 10SM -RA 25/20 A2995 RMK AO2 LTG DSNT SW T02480198
KMDD 210330Z AUTO 17008KT 10SM 25/20 A2995 RMK AO2 LTG DSNT SW T02500198
KMDD 210310Z AUTO 16009KT 10SM 25/20 A2994 RMK AO2 LTG DSNT SW T02510197
KMDD 210250Z AUTO 17008KT 10SM 25/20 A2994 RMK AO2 LTG DSNT SW T02520196
KMDD 210230Z AUTO 17010KT 10SM 26/20 A2993 RMK AO2 LTG DSNT SW T02550196
KMDD 210210Z AUTO 16008KT 10SM 26/20 A2992 RMK AO2 T02560195
KMDD 210150Z AUTO 18010KT 10SM 26/19 A2991 RMK AO2 T02590192
KMDD 210130Z AUTO 18012KT 10SM 26/19 A2990 RMK AO2 T02620191
KMDD 210110Z AUTO 18011KT 10SM 27/19 A2989 RMK AO2 T02650192
KMDD 210055Z AUTO 18008KT 10SM 27/19 A2989 RMK AO2 T02660191
KMDD 210030Z AUTO 17011KT 10SM 27/19 A2988 RMK AO2 LTG DSNT SW T02700191
KMDD 210010Z AUTO 17010KT 10SM 27/20 A2988 RMK AO2 T02720195
KMDD 202350Z AUTO 17013G16KT 10SM 28/19 A2987 RMK AO2 T02760192 10297 20276
KMDD 202330Z AUTO 19012G18KT 10SM 28/19 A2987 RMK AO2 T02800188
KMDD 202310Z AUTO 18012G18KT 10SM 29/19 A2987 RMK AO2 T02890191
KMDD 202250Z AUTO 18013G19KT 10SM 29/19 A2987 RMK AO2 T02890191
KMDD 202235Z AUTO 19014KT 10SM 29/19 A2987 RMK AO2 T02910188
KMDD 202215Z AUTO 17013G20KT 10SM 29/19 A2987 RMK AO2 T02860187
KMDD 202150Z AUTO 17012G18KT 10SM 29/19 A2987 RMK AO2 T02900191
KMDD 202135Z AUTO 18015G19KT 10SM 29/19 A2987 RMK AO2 T02880188
KMDD 202110Z AUTO 21010KT 10SM 29/18 A2988 RMK AO2 T02930178
KMDD 202050Z AUTO 19012KT 10SM 29/18 A2989 RMK AO2 T02870175
KMDD 202030Z AUTO 19012G18KT 10SM 29/18 A2989 RMK AO2 T02900176
KMDD 202010Z AUTO 20010KT 10SM 29/18 A2990 RMK AO2 T02870181
KMDD 201950Z AUTO 20008KT 10SM 29/18 A2991 RMK AO2 T02900178
KMDD 201930Z AUTO 20010G19KT 10SM 29/18 A2992 RMK AO2 T02850178
KMDD 201910Z AUTO 20012G24KT 10SM 29/18 A2993 RMK AO2 T02910184
KMDD 201850Z AUTO 20016G20KT 10SM 29/19 A2994 RMK AO2 T02870185
KMDD 201830Z AUTO 19016G22KT 10SM 29/19 A2995 RMK AO2 T02940185
KMDD 201810Z AUTO 19013G20KT 10SM 29/18 A2995 RMK AO2 T02850184
KMDD 201750Z AUTO 18011G20KT 10SM 29/18 A2996 RMK AO2 T02890181 10292 20220
KMDD 201730Z AUTO 17018KT 10SM 29/18 A2996 RMK AO2 T02870180
KMDD 201710Z AUTO 16014G21KT 10SM 29/18 A2997 RMK AO2 T02870184
KMDD 201650Z AUTO 17018G23KT 10SM 28/19 A2998 RMK AO2 T02800185
KMDD 201630Z AUTO 18018G24KT 10SM 27/19 A2998 RMK AO2 T02720187
KMDD 201615Z AUTO 19016G23KT 10SM 27/19 A2999 RMK AO2 T02740190
KMDD 201550Z AUTO 16018G23KT 10SM 27/20 A2999 RMK AO2 T02660198
KMDD 201530Z AUTO 17014G23KT 10SM 26/20 A2999 RMK AO2 T02550199
KMDD 201510Z AUTO 17020KT 10SM 25/20 A2998 RMK AO2 T02510200
KMDD 201450Z AUTO 18014G21KT 10SM 25/20 A2998 RMK AO2 T02460200
KMDD 201430Z AUTO 17015G19KT 10SM 24/20 A2998 RMK AO2 T02420201
KMDD 201410Z AUTO 16014G19KT 10SM 24/20 A2998 RMK AO2 T02380201
KMDD 201350Z AUTO 17016G21KT 10SM 23/20 A2997 RMK AO2 T02320200
KMDD 201330Z AUTO 17012KT 10SM 23/20 A2997 RMK AO2 T02280200
KMDD 201310Z AUTO 17008KT 10SM 22/20 A2996 RMK AO2 T02220200
KMDD 201250Z AUTO 16010G14KT 10SM 22/20 A2996 RMK AO2 T02200198
KMDD 201230Z AUTO 16010G16KT 10SM 22/20 A2995 RMK AO2 T02200197
KMDD 201210Z AUTO 18010G15KT 10SM 22/20 A2995 RMK AO2 T02210198
KMDD 201150Z AUTO 17011KT 10SM 22/20 A2995 RMK AO2 T02200196 10230 20218
KMDD 201135Z AUTO 16010KT 10SM 22/20 A2995 RMK AO2 T02200197
KMDD 201110Z AUTO 16010KT 10SM 22/20 A2995 RMK AO2 T02200196
KMDD 201050Z AUTO 16010G16KT 10SM 22/20 A2995 RMK AO2 T02210195
KMDD 201035Z AUTO 17013G18KT 10SM 22/20 A2995 RMK AO2 T02220195
KMDD 201010Z AUTO 17014KT 10SM 22/19 A2994 RMK AO2 T02240192
KMDD 200950Z AUTO 17013G17KT 10SM 22/19 A2995 RMK AO2 T02230190
KMDD 200935Z AUTO 17013G19KT 10SM 22/19 A2995 RMK AO2 T02220190
KMDD 200910Z AUTO 16011G16KT 10SM 22/19 A2995 RMK AO2 T02210190
KMDD 200850Z AUTO 16008G14KT 10SM 22/19 A2995 RMK AO2 T02200186
KMDD 200830Z AUTO 16009KT 10SM 22/18 A2996 RMK AO2 T02200183
KMDD 200810Z AUTO 16010G15KT 10SM 22/18 A2996 RMK AO2 T02210182
KMDD 200750Z AUTO 16010G15KT 10SM 22/18 A2996 RMK AO2 T02210180
KMDD 200730Z AUTO 16008KT 10SM 22/18 A2996 RMK AO2 T02230178
KMDD 200710Z AUTO 16008KT 10SM 23/18 A2996 RMK AO2 T02250176
KMDD 200650Z AUTO 17008KT 10SM 23/18 A2996 RMK AO2 T02260175
KMDD 200630Z AUTO 16008KT 10SM 23/17 A2996 RMK AO2 T02270173